Miami, Florida
Traffic Map
Current Weather Conditions
Miami, Florida
Overcast
Overcast
78°
Feels Like: 80°
Wind Chill: 78° Ceiling: 2700
Heat Index: 80° Visibility: 10mi
Dew Point: 69° Wind: 9mph
Humidity: 74% Direction: 20° (NNE)
Pressure: 29.81in Gusts: 0mph
Raw Report DataKMIA 242120Z 02008KT 10SM BKN027 BKN036 OVC100 26/21 A2981 RMK AO2 T02560206
Traffic Incident Summary
Active as of:
Severity:
Category:
InformationThere was an issue retrieving the traffic information for this location. Please try a different location or try again shortly.
Advertisements
Track Severe Weather on mobile